createdAt,value
2018-12-27T00:00:47.093Z,3.74
2018-12-27T00:01:47.212Z,3.71
2018-12-27T00:02:54.628Z,3.73
2018-12-27T00:03:47.003Z,3.71
2018-12-27T00:04:47.000Z,3.70
2018-12-27T00:05:47.251Z,3.73
2018-12-27T00:06:46.918Z,3.73
2018-12-27T00:07:46.930Z,3.73
2018-12-27T00:08:46.890Z,3.68
2018-12-27T00:09:47.016Z,3.66
2018-12-27T00:10:46.759Z,3.76
2018-12-27T00:11:46.762Z,3.68
2018-12-27T00:12:46.764Z,3.64
2018-12-27T00:13:46.719Z,3.68
2018-12-27T00:14:46.734Z,3.63
2018-12-27T00:15:46.673Z,3.67
2018-12-27T00:16:46.637Z,3.67
2018-12-27T00:17:46.590Z,3.71
2018-12-27T00:18:46.575Z,3.66
2018-12-27T00:19:46.786Z,3.74
2018-12-27T00:20:46.530Z,3.67
2018-12-27T00:21:46.519Z,3.70
2018-12-27T00:22:46.496Z,3.63
2018-12-27T00:23:46.457Z,3.68
2018-12-27T00:24:46.428Z,3.70
2018-12-27T00:25:46.440Z,3.71
2018-12-27T00:26:46.356Z,3.71
2018-12-27T00:27:46.369Z,3.67
2018-12-27T00:28:46.295Z,3.71
2018-12-27T00:29:46.307Z,3.59
2018-12-27T00:30:46.265Z,3.61
2018-12-27T00:31:46.241Z,3.58
2018-12-27T00:32:46.185Z,3.56
2018-12-27T00:33:46.184Z,3.50
2018-12-27T00:34:46.182Z,3.55
2018-12-27T00:35:46.154Z,3.59
2018-12-27T00:36:46.098Z,3.66
2018-12-27T00:37:46.070Z,3.58
2018-12-27T00:38:46.081Z,3.63
2018-12-27T00:39:46.036Z,3.55
2018-12-27T00:40:45.994Z,3.52
2018-12-27T00:41:45.970Z,3.59
2018-12-27T00:42:45.945Z,3.58
2018-12-27T00:43:45.948Z,3.58
2018-12-27T00:44:45.915Z,3.52
2018-12-27T00:45:45.889Z,3.68
2018-12-27T00:46:45.847Z,3.56
2018-12-27T00:47:45.875Z,3.68
2018-12-27T00:48:45.857Z,3.55
2018-12-27T00:49:45.963Z,3.53
2018-12-27T00:50:45.695Z,3.63
2018-12-27T00:51:45.791Z,3.56
2018-12-27T00:52:45.672Z,3.58
2018-12-27T00:53:45.665Z,3.52
2018-12-27T00:54:45.611Z,3.52
2018-12-27T00:55:45.587Z,3.61
2018-12-27T00:56:45.589Z,3.59
2018-12-27T00:57:45.840Z,3.49
2018-12-27T00:58:45.542Z,3.52
2018-12-27T00:59:45.504Z,3.52
2018-12-27T01:00:45.464Z,3.48
2018-12-27T01:01:45.461Z,3.48
2018-12-27T01:02:45.486Z,3.48
2018-12-27T01:03:45.386Z,3.58
2018-12-27T01:04:45.372Z,3.49
2018-12-27T01:05:45.340Z,3.55
2018-12-27T01:06:45.349Z,3.61
2018-12-27T01:07:45.334Z,3.53
2018-12-27T01:08:45.257Z,3.52
2018-12-27T01:09:45.246Z,3.59
2018-12-27T01:10:45.328Z,3.55
2018-12-27T01:11:45.211Z,3.61
2018-12-27T01:12:45.171Z,3.56
2018-12-27T01:13:45.121Z,3.66
2018-12-27T01:14:45.094Z,3.55
2018-12-27T01:15:45.107Z,3.59
2018-12-27T01:16:45.063Z,3.63
2018-12-27T01:17:45.024Z,3.59
2018-12-27T01:18:45.012Z,3.63
2018-12-27T01:19:44.962Z,3.59
2018-12-27T01:20:44.957Z,3.61
2018-12-27T01:21:44.944Z,3.59
2018-12-27T01:22:44.860Z,3.58
2018-12-27T01:23:44.913Z,3.50
2018-12-27T01:24:44.843Z,3.61
2018-12-27T01:25:44.835Z,3.50
2018-12-27T01:26:44.801Z,3.58
2018-12-27T01:27:44.884Z,3.56
2018-12-27T01:28:44.858Z,3.46
2018-12-27T01:29:44.678Z,3.48
2018-12-27T01:30:44.670Z,3.50
2018-12-27T01:31:50.560Z,3.52
2018-12-27T01:32:44.655Z,3.52
2018-12-27T01:33:44.570Z,3.50
2018-12-27T01:34:44.607Z,3.61
2018-12-27T01:35:44.598Z,3.61
2018-12-27T01:36:44.587Z,3.59
2018-12-27T01:37:44.526Z,3.58
2018-12-27T01:38:44.482Z,3.64
2018-12-27T01:39:44.449Z,3.58
2018-12-27T01:40:44.422Z,3.58
2018-12-27T01:41:44.384Z,3.64
2018-12-27T01:42:44.377Z,3.59
2018-12-27T01:43:44.303Z,3.61
2018-12-27T01:44:44.377Z,3.63
2018-12-27T01:45:44.361Z,3.58
2018-12-27T01:46:44.259Z,3.53
2018-12-27T01:47:44.217Z,3.61
2018-12-27T01:48:44.249Z,3.59
2018-12-27T01:49:44.195Z,3.61
2018-12-27T01:50:44.161Z,3.64
2018-12-27T01:51:44.172Z,3.64
2018-12-27T01:52:44.132Z,3.52
2018-12-27T01:53:44.085Z,3.49
2018-12-27T01:54:44.054Z,3.48
2018-12-27T01:55:44.019Z,3.53
2018-12-27T01:56:43.989Z,3.53
2018-12-27T01:57:43.919Z,3.37
2018-12-27T01:58:43.954Z,3.43
2018-12-27T01:59:43.925Z,3.34
2018-12-27T02:00:43.870Z,3.49
2018-12-27T02:01:43.891Z,3.37
2018-12-27T02:02:43.815Z,3.40
2018-12-27T02:03:43.815Z,3.52
2018-12-27T02:04:43.804Z,3.46
2018-12-27T02:05:43.732Z,3.52
2018-12-27T02:06:43.772Z,3.45
2018-12-27T02:07:43.692Z,3.37
2018-12-27T02:08:43.921Z,3.50
2018-12-27T02:09:43.875Z,3.49
2018-12-27T02:10:43.643Z,3.40
2018-12-27T02:11:43.584Z,3.49
2018-12-27T02:12:43.550Z,3.43
2018-12-27T02:13:43.509Z,3.43
2018-12-27T02:14:43.552Z,3.36
2018-12-27T02:15:43.507Z,3.36
2018-12-27T02:16:43.485Z,3.41
2018-12-27T02:17:43.506Z,3.26
2018-12-27T02:18:43.404Z,3.41
2018-12-27T02:19:43.354Z,3.22
2018-12-27T02:20:43.371Z,3.34
2018-12-27T02:21:43.472Z,3.26
2018-12-27T02:22:43.274Z,3.30
2018-12-27T02:23:43.595Z,3.31
2018-12-27T02:24:43.224Z,3.26
2018-12-27T02:25:43.238Z,3.27
2018-12-27T02:26:43.181Z,3.22
2018-12-27T02:27:43.131Z,3.22
2018-12-27T02:28:43.142Z,3.22
2018-12-27T02:29:43.369Z,3.24
2018-12-27T02:30:43.126Z,3.19
2018-12-27T02:31:43.054Z,3.26
2018-12-27T02:32:43.008Z,3.27
2018-12-27T02:33:43.005Z,3.21
2018-12-27T02:34:42.959Z,3.13
2018-12-27T02:35:42.961Z,3.21
2018-12-27T02:36:42.970Z,3.18
2018-12-27T02:37:42.892Z,3.21
2018-12-27T02:38:42.878Z,3.15
2018-12-27T02:39:42.842Z,3.13
2018-12-27T02:40:42.806Z,3.12
2018-12-27T02:41:42.763Z,3.13
2018-12-27T02:42:42.767Z,3.12
2018-12-27T02:43:42.722Z,3.19
2018-12-27T02:44:42.722Z,3.15
2018-12-27T02:45:42.697Z,3.13
2018-12-27T02:46:42.711Z,3.08
2018-12-27T02:47:42.587Z,3.19
2018-12-27T02:48:42.895Z,3.22
2018-12-27T02:49:42.890Z,3.15
2018-12-27T02:50:42.601Z,3.22
2018-12-27T02:51:42.489Z,3.15
2018-12-27T02:52:42.479Z,3.27
2018-12-27T02:53:42.462Z,3.27
2018-12-27T02:54:42.490Z,3.24
2018-12-27T02:55:42.400Z,3.11
2018-12-27T02:56:42.369Z,3.12
2018-12-27T02:57:42.398Z,3.13
2018-12-27T02:58:42.306Z,3.08
2018-12-27T02:59:42.316Z,3.13
2018-12-27T03:00:42.223Z,3.01
2018-12-27T03:01:42.248Z,2.98
2018-12-27T03:02:42.228Z,2.97
2018-12-27T03:03:44.020Z,2.94
2018-12-27T03:04:42.172Z,2.90
2018-12-27T03:05:42.117Z,2.91
2018-12-27T03:06:42.233Z,3.00
2018-12-27T03:07:42.087Z,2.87
2018-12-27T03:08:42.091Z,2.91
2018-12-27T03:09:42.025Z,2.91
2018-12-27T03:10:42.196Z,2.90
2018-12-27T03:11:42.000Z,2.91
2018-12-27T03:12:41.928Z,2.91
2018-12-27T03:13:41.975Z,2.93
2018-12-27T03:14:42.033Z,2.83
2018-12-27T03:15:41.810Z,2.85
2018-12-27T03:16:41.836Z,2.88
2018-12-27T03:17:41.822Z,2.83
2018-12-27T03:18:41.793Z,2.76
2018-12-27T03:19:41.919Z,2.80
2018-12-27T03:20:41.780Z,2.80
2018-12-27T03:21:41.700Z,2.79
2018-12-27T03:22:41.646Z,2.80
2018-12-27T03:23:41.660Z,2.75
2018-12-27T03:24:41.912Z,2.77
2018-12-27T03:25:41.548Z,2.73
2018-12-27T03:26:41.522Z,2.75
2018-12-27T03:27:41.529Z,2.79
2018-12-27T03:28:41.530Z,2.75
2018-12-27T03:29:41.479Z,2.76
2018-12-27T03:30:41.472Z,2.85
2018-12-27T03:31:41.421Z,2.80
2018-12-27T03:32:41.413Z,2.72
2018-12-27T03:33:41.398Z,2.68
2018-12-27T03:34:41.631Z,2.58
2018-12-27T03:35:41.348Z,2.59
2018-12-27T03:36:41.327Z,2.68
2018-12-27T03:37:41.273Z,2.55
2018-12-27T03:38:41.296Z,2.55
2018-12-27T03:39:41.228Z,2.57
2018-12-27T03:40:41.186Z,2.62
2018-12-27T03:41:41.178Z,2.57
2018-12-27T03:42:41.166Z,2.69
2018-12-27T03:43:41.119Z,2.72
2018-12-27T03:44:41.054Z,2.68
2018-12-27T03:45:41.088Z,2.75
2018-12-27T03:46:41.053Z,2.77
2018-12-27T03:47:40.946Z,2.70
2018-12-27T03:48:40.980Z,2.77
2018-12-27T03:49:40.921Z,2.73
2018-12-27T03:50:40.884Z,2.72
2018-12-27T03:51:40.874Z,2.62
2018-12-27T03:52:40.853Z,2.68
2018-12-27T03:53:40.847Z,2.52
2018-12-27T03:54:40.782Z,2.55
2018-12-27T03:55:40.789Z,2.51
2018-12-27T03:56:40.792Z,2.55
2018-12-27T03:57:40.945Z,2.46
2018-12-27T03:58:40.797Z,2.46
2018-12-27T03:59:40.924Z,2.51
2018-12-27T04:00:40.928Z,2.44
2018-12-27T04:01:40.572Z,2.46
2018-12-27T04:02:40.561Z,2.51
2018-12-27T04:03:40.502Z,2.50
2018-12-27T04:04:40.501Z,2.51
2018-12-27T04:05:40.515Z,2.41
2018-12-27T04:06:40.447Z,2.55
2018-12-27T04:07:40.444Z,2.54
2018-12-27T04:08:40.401Z,2.41
2018-12-27T04:09:40.354Z,2.55
2018-12-27T04:10:40.315Z,2.50
2018-12-27T04:11:40.613Z,2.41
2018-12-27T04:12:40.443Z,2.34
2018-12-27T04:13:40.237Z,2.40
2018-12-27T04:14:40.205Z,2.28
2018-12-27T04:15:40.282Z,2.32
2018-12-27T04:16:40.153Z,2.32
2018-12-27T04:17:40.184Z,2.37
2018-12-27T04:18:40.166Z,2.32
2018-12-27T04:19:40.074Z,2.30
2018-12-27T04:20:40.114Z,2.30
2018-12-27T04:21:40.015Z,2.33
2018-12-27T04:22:39.987Z,2.36
2018-12-27T04:23:39.961Z,2.30
2018-12-27T04:24:39.981Z,2.41
2018-12-27T04:25:39.950Z,2.39
2018-12-27T04:26:39.900Z,2.39
2018-12-27T04:27:39.909Z,2.37
2018-12-27T04:28:39.828Z,2.43
2018-12-27T04:29:39.775Z,2.33
2018-12-27T04:30:39.775Z,2.39
2018-12-27T04:31:39.773Z,2.28
2018-12-27T04:32:39.760Z,2.41
2018-12-27T04:33:39.654Z,2.36
2018-12-27T04:34:39.680Z,2.26
2018-12-27T04:35:39.680Z,2.36
2018-12-27T04:36:39.859Z,2.39
2018-12-27T04:37:40.010Z,2.39
2018-12-27T04:38:39.574Z,2.30
2018-12-27T04:39:39.535Z,2.32
2018-12-27T04:40:39.523Z,2.36
2018-12-27T04:41:39.461Z,2.33
2018-12-27T04:42:39.450Z,2.41
2018-12-27T04:43:39.456Z,2.36
2018-12-27T04:44:39.413Z,2.43
2018-12-27T04:45:39.386Z,2.51
2018-12-27T04:46:39.386Z,2.52
2018-12-27T04:47:39.296Z,2.50
2018-12-27T04:48:39.328Z,2.57
2018-12-27T04:49:39.241Z,2.52
2018-12-27T04:50:39.240Z,2.55
2018-12-27T04:51:39.182Z,2.52
2018-12-27T04:52:39.175Z,2.57
2018-12-27T04:53:39.191Z,2.52
2018-12-27T04:54:39.108Z,2.52
2018-12-27T04:55:39.101Z,2.52
2018-12-27T04:56:39.079Z,2.58
2018-12-27T04:57:39.079Z,2.41
2018-12-27T04:58:38.964Z,2.47
2018-12-27T04:59:38.981Z,2.47
2018-12-27T05:00:39.047Z,2.51
2018-12-27T05:01:38.997Z,2.50
2018-12-27T05:02:38.899Z,2.58
2018-12-27T05:03:38.882Z,2.50
2018-12-27T05:04:38.877Z,2.46
2018-12-27T05:05:38.791Z,2.43
2018-12-27T05:06:38.963Z,2.37
2018-12-27T05:07:38.976Z,2.44
2018-12-27T05:08:38.691Z,2.46
2018-12-27T05:09:38.696Z,2.50
2018-12-27T05:10:38.724Z,2.46
2018-12-27T05:11:38.670Z,2.46
2018-12-27T05:12:38.622Z,2.37
2018-12-27T05:13:38.598Z,2.52
2018-12-27T05:14:38.549Z,2.40
2018-12-27T05:15:38.539Z,2.44
2018-12-27T05:16:38.537Z,2.33
2018-12-27T05:17:38.483Z,2.51
2018-12-27T05:18:38.437Z,2.33
2018-12-27T05:19:38.433Z,2.39
2018-12-27T05:20:38.412Z,2.26
2018-12-27T05:21:38.405Z,2.32
2018-12-27T05:22:38.302Z,2.28
2018-12-27T05:23:38.296Z,2.32
2018-12-27T05:24:38.303Z,2.33
2018-12-27T05:25:38.266Z,2.37
2018-12-27T05:26:38.273Z,2.41
2018-12-27T05:27:38.195Z,2.36
2018-12-27T05:28:38.209Z,2.30
2018-12-27T05:29:38.144Z,2.26
2018-12-27T05:30:38.116Z,2.34
2018-12-27T05:31:38.081Z,2.21
2018-12-27T05:32:38.045Z,2.19
2018-12-27T05:33:38.055Z,2.18
2018-12-27T05:34:38.003Z,2.16
2018-12-27T05:35:37.992Z,2.14
2018-12-27T05:36:37.937Z,2.19
2018-12-27T05:37:37.913Z,2.14
2018-12-27T05:38:37.905Z,2.16
2018-12-27T05:39:37.817Z,2.12
2018-12-27T05:40:37.872Z,2.21
2018-12-27T05:41:37.833Z,2.18
2018-12-27T05:42:37.929Z,2.16
2018-12-27T05:43:37.810Z,2.14
2018-12-27T05:44:37.784Z,2.19
2018-12-27T05:45:37.708Z,2.12
2018-12-27T05:46:37.689Z,2.15
2018-12-27T05:47:37.949Z,2.14
2018-12-27T05:48:37.649Z,2.12
2018-12-27T05:49:38.859Z,2.14
2018-12-27T05:50:37.595Z,2.03
2018-12-27T05:51:37.594Z,2.00
2018-12-27T05:52:37.513Z,2.19
2018-12-27T05:53:37.459Z,2.16
2018-12-27T05:54:37.472Z,2.18
2018-12-27T05:55:37.479Z,2.18
2018-12-27T05:56:37.440Z,2.23
2018-12-27T05:57:37.392Z,2.21
2018-12-27T05:58:37.390Z,2.19
2018-12-27T05:59:37.321Z,2.16
2018-12-27T06:00:37.327Z,2.19
2018-12-27T06:01:37.277Z,2.14
2018-12-27T06:02:37.203Z,2.14
2018-12-27T06:03:37.437Z,2.14
2018-12-27T06:04:37.222Z,2.15
2018-12-27T06:05:37.139Z,2.04
2018-12-27T06:06:37.122Z,2.12
2018-12-27T06:07:37.357Z,2.08
2018-12-27T06:08:37.076Z,2.03
2018-12-27T06:09:37.016Z,2.01
2018-12-27T06:10:37.029Z,2.03
2018-12-27T06:11:37.018Z,2.03
2018-12-27T06:12:36.985Z,2.04
2018-12-27T06:13:37.063Z,2.01
2018-12-27T06:14:36.957Z,2.08
2018-12-27T06:15:36.911Z,2.10
2018-12-27T06:16:36.898Z,2.00
2018-12-27T06:17:36.860Z,2.04
2018-12-27T06:18:36.826Z,2.00
2018-12-27T06:19:36.755Z,1.95
2018-12-27T06:20:36.797Z,2.00
2018-12-27T06:21:36.690Z,2.10
2018-12-27T06:22:36.676Z,2.04
2018-12-27T06:23:36.663Z,2.03
2018-12-27T06:24:36.665Z,1.86
2018-12-27T06:25:36.636Z,1.97
2018-12-27T06:26:36.579Z,2.03
2018-12-27T06:27:36.523Z,1.88
2018-12-27T06:28:36.761Z,2.00
2018-12-27T06:29:36.541Z,2.03
2018-12-27T06:30:36.522Z,1.97
2018-12-27T06:31:36.441Z,1.97
2018-12-27T06:32:36.381Z,1.98
2018-12-27T06:33:36.405Z,2.03
2018-12-27T06:34:41.287Z,2.01
2018-12-27T06:35:36.715Z,2.04
2018-12-27T06:36:36.377Z,2.05
2018-12-27T06:37:36.237Z,1.98
2018-12-27T06:38:36.184Z,2.04
2018-12-27T06:39:36.538Z,1.89
2018-12-27T06:40:36.199Z,1.89
2018-12-27T06:41:36.183Z,1.92
2018-12-27T06:42:36.143Z,1.88
2018-12-27T06:43:36.095Z,1.82
2018-12-27T06:44:36.080Z,1.86
2018-12-27T06:45:36.019Z,1.93
2018-12-27T06:46:36.046Z,1.86
2018-12-27T06:47:36.053Z,1.86
2018-12-27T06:48:36.001Z,1.92
2018-12-27T06:49:43.003Z,1.89
2018-12-27T06:50:35.923Z,1.89
2018-12-27T06:51:35.929Z,1.89
2018-12-27T06:52:35.837Z,2.05
2018-12-27T06:53:35.870Z,2.05
2018-12-27T06:54:35.822Z,2.00
2018-12-27T06:55:35.773Z,1.92
2018-12-27T06:56:35.772Z,2.07
2018-12-27T06:57:35.738Z,1.98
2018-12-27T06:58:37.899Z,2.00
2018-12-27T06:59:35.643Z,2.03
2018-12-27T07:00:35.627Z,1.97
2018-12-27T07:01:35.558Z,2.01
2018-12-27T07:02:35.553Z,2.04
2018-12-27T07:03:35.538Z,2.03
2018-12-27T07:04:35.494Z,1.97
2018-12-27T07:05:35.474Z,1.98
2018-12-27T07:06:35.920Z,2.00
2018-12-27T07:07:35.451Z,2.01
2018-12-27T07:08:35.375Z,2.03
2018-12-27T07:09:35.362Z,2.10
2018-12-27T07:10:35.393Z,2.05
2018-12-27T07:11:35.328Z,2.05
2018-12-27T07:12:35.269Z,2.04
2018-12-27T07:13:35.257Z,1.98
2018-12-27T07:14:35.258Z,2.07
2018-12-27T07:15:35.194Z,2.04
2018-12-27T07:16:35.193Z,2.01
2018-12-27T07:17:35.160Z,2.01
2018-12-27T07:18:35.078Z,2.03
2018-12-27T07:19:35.052Z,2.12
2018-12-27T07:20:35.238Z,2.04
2018-12-27T07:21:35.047Z,2.07
2018-12-27T07:22:35.045Z,2.03
2018-12-27T07:23:34.977Z,2.15
2018-12-27T07:24:34.970Z,2.15
2018-12-27T07:25:34.953Z,2.08
2018-12-27T07:26:34.945Z,2.08
2018-12-27T07:27:34.855Z,2.22
2018-12-27T07:28:34.890Z,2.18
2018-12-27T07:29:34.869Z,2.19
2018-12-27T07:30:34.757Z,2.14
2018-12-27T07:31:34.741Z,2.21
2018-12-27T07:32:34.717Z,2.22
2018-12-27T07:33:34.678Z,2.14
2018-12-27T07:34:34.707Z,2.21
2018-12-27T07:35:34.692Z,2.21
2018-12-27T07:36:34.607Z,2.15
2018-12-27T07:37:34.584Z,2.14
2018-12-27T07:38:34.594Z,2.16
2018-12-27T07:39:34.576Z,2.15
2018-12-27T07:40:34.535Z,2.10
2018-12-27T07:41:34.508Z,2.10
2018-12-27T07:42:34.418Z,2.04
2018-12-27T07:43:34.477Z,2.05
2018-12-27T07:44:34.441Z,2.04
2018-12-27T07:45:34.390Z,2.07
2018-12-27T07:46:34.393Z,2.08
2018-12-27T07:47:34.361Z,2.07
2018-12-27T07:48:34.294Z,2.03
2018-12-27T07:49:34.228Z,2.08
2018-12-27T07:50:34.219Z,2.05
2018-12-27T07:51:34.224Z,2.04
2018-12-27T07:52:34.360Z,2.08
2018-12-27T07:53:34.161Z,2.10
2018-12-27T07:54:34.160Z,2.15
2018-12-27T07:55:34.305Z,2.14
2018-12-27T07:56:34.070Z,2.18
2018-12-27T07:57:34.024Z,2.26
2018-12-27T07:58:34.021Z,2.21
2018-12-27T07:59:34.257Z,2.32
2018-12-27T08:00:33.907Z,2.30
2018-12-27T08:01:33.909Z,2.32
2018-12-27T08:02:33.649Z,2.26
2018-12-27T08:03:33.841Z,2.32
2018-12-27T08:04:34.431Z,2.26
2018-12-27T08:05:34.257Z,2.28
2018-12-27T08:06:37.741Z,2.26
2018-12-27T08:07:33.725Z,2.26
2018-12-27T08:08:33.698Z,2.32
2018-12-27T08:09:33.636Z,2.33
2018-12-27T08:10:33.587Z,2.32
2018-12-27T08:11:33.581Z,2.33
2018-12-27T08:12:33.362Z,2.25
2018-12-27T08:13:33.421Z,2.37
2018-12-27T08:14:33.650Z,2.32
2018-12-27T08:15:33.784Z,2.32
2018-12-27T08:16:33.522Z,2.28
2018-12-27T08:17:33.517Z,2.33
2018-12-27T08:18:33.347Z,2.33
2018-12-27T08:19:36.285Z,2.32
2018-12-27T08:20:33.339Z,2.26
2018-12-27T08:21:33.129Z,2.25
2018-12-27T08:22:33.102Z,2.28
2018-12-27T08:23:33.302Z,2.33
2018-12-27T08:24:33.023Z,2.28
2018-12-27T08:25:32.997Z,2.32
2018-12-27T08:26:32.968Z,2.25
2018-12-27T08:27:32.940Z,2.33
2018-12-27T08:28:32.914Z,2.34
2018-12-27T08:29:42.193Z,2.34
2018-12-27T08:31:26.631Z,2.36
2018-12-27T08:32:27.144Z,2.30
2018-12-27T08:34:19.868Z,2.34
2018-12-27T08:35:19.933Z,2.34
2018-12-27T08:37:13.816Z,2.32
2018-12-27T08:38:12.834Z,2.39
2018-12-27T08:40:07.076Z,2.34
2018-12-27T08:41:06.332Z,2.40
2018-12-27T08:42:59.874Z,2.50
2018-12-27T08:43:59.769Z,2.54
2018-12-27T08:45:53.754Z,2.39
2018-12-27T08:46:53.387Z,2.43
2018-12-27T08:48:47.855Z,2.51
2018-12-27T08:49:47.736Z,2.58
2018-12-27T08:51:41.153Z,2.54
2018-12-27T08:52:41.171Z,2.54
2018-12-27T08:54:34.603Z,2.55
2018-12-27T08:55:34.132Z,2.59
2018-12-27T08:57:27.747Z,2.55
2018-12-27T08:58:27.746Z,2.58
2018-12-27T09:00:20.770Z,2.54
2018-12-27T09:01:20.900Z,2.59
2018-12-27T09:03:15.421Z,2.64
2018-12-27T09:04:15.375Z,2.57
2018-12-27T09:06:09.664Z,2.73
2018-12-27T09:07:09.624Z,2.72
2018-12-27T09:09:02.870Z,2.75
2018-12-27T09:10:02.602Z,2.76
2018-12-27T09:11:56.477Z,2.88
2018-12-27T09:12:56.309Z,2.77
2018-12-27T09:14:51.242Z,2.79
2018-12-27T09:15:49.206Z,2.90
2018-12-27T09:17:42.925Z,2.77
2018-12-27T09:18:42.863Z,2.82
2018-12-27T09:20:36.219Z,2.76
2018-12-27T09:21:35.902Z,2.77
2018-12-27T09:23:29.611Z,2.90
2018-12-27T09:24:29.531Z,2.83
2018-12-27T09:26:23.329Z,2.90
2018-12-27T09:27:22.581Z,2.87
2018-12-27T09:29:16.259Z,2.83
2018-12-27T09:30:15.771Z,2.94
2018-12-27T09:32:14.563Z,2.90
2018-12-27T09:33:13.387Z,2.93
2018-12-27T09:34:13.993Z,2.91
2018-12-27T09:35:12.965Z,2.94
2018-12-27T09:36:13.145Z,3.06
2018-12-27T09:37:12.889Z,3.00
2018-12-27T09:38:12.883Z,3.01
2018-12-27T09:39:12.897Z,3.01
2018-12-27T09:40:14.069Z,2.94
2018-12-27T09:41:12.834Z,3.03
2018-12-27T09:42:12.751Z,2.97
2018-12-27T09:43:12.757Z,3.13
2018-12-27T09:44:12.716Z,3.13
2018-12-27T09:45:12.677Z,3.08
2018-12-27T09:46:12.643Z,3.11
2018-12-27T09:47:12.657Z,3.15
2018-12-27T09:48:12.589Z,3.15
2018-12-27T09:49:20.384Z,3.11
2018-12-27T09:51:07.317Z,3.19
2018-12-27T09:52:06.745Z,3.30
2018-12-27T09:54:00.214Z,3.24
2018-12-27T09:55:00.311Z,3.26
2018-12-27T09:56:54.634Z,3.29
2018-12-27T09:57:55.048Z,3.43
2018-12-27T09:59:50.714Z,3.40
2018-12-27T10:00:47.941Z,3.37
2018-12-27T10:02:42.251Z,3.34
2018-12-27T10:05:35.427Z,3.50
2018-12-27T10:06:35.644Z,3.61
2018-12-27T10:08:28.831Z,3.67
2018-12-27T10:09:28.495Z,3.67
2018-12-27T10:11:22.236Z,3.76
2018-12-27T10:12:21.824Z,3.76
2018-12-27T10:14:20.190Z,3.76
2018-12-27T10:15:21.315Z,3.81
2018-12-27T10:17:13.283Z,3.88
2018-12-27T10:18:12.604Z,3.89
2018-12-27T10:20:06.155Z,4.02
2018-12-27T10:21:07.214Z,4.02
2018-12-27T10:23:00.303Z,4.16
2018-12-27T10:23:59.765Z,4.20
2018-12-27T10:25:55.274Z,4.34
2018-12-27T10:26:53.514Z,4.28
2018-12-27T10:28:52.709Z,4.34
2018-12-27T10:29:53.023Z,4.31
2018-12-27T10:31:46.365Z,4.32
2018-12-27T10:32:46.030Z,4.43
2018-12-27T10:34:39.740Z,4.53
2018-12-27T10:35:41.311Z,4.43
2018-12-27T10:37:33.910Z,4.57
2018-12-27T10:38:33.655Z,4.57
2018-12-27T10:40:28.665Z,4.57
2018-12-27T10:41:28.162Z,4.58
2018-12-27T10:43:21.684Z,4.58
2018-12-27T10:44:21.431Z,4.56
2018-12-27T10:46:15.354Z,4.68
2018-12-27T10:47:14.424Z,4.66
2018-12-27T10:49:08.084Z,4.70
2018-12-27T10:50:07.818Z,4.68
2018-12-27T10:52:01.754Z,4.70
2018-12-27T10:53:01.402Z,4.70
2018-12-27T10:54:54.658Z,4.67
2018-12-27T10:55:54.883Z,4.71
2018-12-27T10:57:48.070Z,4.79
2018-12-27T10:58:48.058Z,4.89
2018-12-27T11:00:41.624Z,4.82
2018-12-27T11:01:41.614Z,4.71
2018-12-27T11:03:39.746Z,4.86
2018-12-27T11:04:39.736Z,4.86
2018-12-27T11:05:39.636Z,4.94
2018-12-27T11:06:39.617Z,4.86
2018-12-27T11:07:39.108Z,4.83
2018-12-27T11:08:39.089Z,4.87
2018-12-27T11:09:39.116Z,4.97
2018-12-27T11:10:39.038Z,5.01
2018-12-27T11:11:39.135Z,4.95
2018-12-27T11:12:39.309Z,5.00
2018-12-27T11:13:39.558Z,5.04
2018-12-27T11:14:39.379Z,5.02
2018-12-27T11:15:39.733Z,4.95
2018-12-27T11:16:38.895Z,5.04
2018-12-27T11:17:38.867Z,5.04
2018-12-27T11:18:38.829Z,4.97
2018-12-27T11:19:38.764Z,4.95
2018-12-27T11:20:38.739Z,4.94
2018-12-27T11:21:38.710Z,4.97
2018-12-27T11:22:38.752Z,5.01
2018-12-27T11:23:38.660Z,5.00
2018-12-27T11:24:38.650Z,4.89
2018-12-27T11:25:38.609Z,4.84
2018-12-27T11:26:38.628Z,4.86
2018-12-27T11:27:38.553Z,4.92
2018-12-27T11:28:38.531Z,4.84
2018-12-27T11:29:38.501Z,4.87
2018-12-27T11:30:38.479Z,4.92
2018-12-27T11:31:38.448Z,4.94
2018-12-27T11:32:38.421Z,4.84
2018-12-27T11:33:38.400Z,4.86
2018-12-27T11:34:38.368Z,4.86
2018-12-27T11:35:38.349Z,4.76
2018-12-27T11:36:38.317Z,4.83
2018-12-27T11:37:38.292Z,4.87
2018-12-27T11:38:38.283Z,4.86
2018-12-27T11:39:38.244Z,4.79
2018-12-27T11:40:38.231Z,4.83
2018-12-27T11:41:38.185Z,4.86
2018-12-27T11:42:38.202Z,4.76
2018-12-27T11:43:38.132Z,4.92
2018-12-27T11:44:38.109Z,4.86
2018-12-27T11:45:38.084Z,4.84
2018-12-27T11:46:38.053Z,4.76
2018-12-27T11:47:38.027Z,4.76
2018-12-27T11:48:38.003Z,4.84
2018-12-27T11:49:37.989Z,4.86
2018-12-27T11:50:37.947Z,4.84
2018-12-27T11:51:37.920Z,4.87
2018-12-27T11:52:37.972Z,4.84
2018-12-27T11:53:37.887Z,4.86
2018-12-27T11:54:37.845Z,4.87
2018-12-27T11:55:37.815Z,4.89
2018-12-27T11:56:38.415Z,5.00
2018-12-27T11:57:37.766Z,4.95
2018-12-27T11:58:37.737Z,4.95
2018-12-27T11:59:37.710Z,4.95
2018-12-27T12:00:37.721Z,4.98
2018-12-27T12:01:37.670Z,4.97
2018-12-27T12:02:37.639Z,4.95
2018-12-27T12:03:37.606Z,4.95
2018-12-27T12:04:37.579Z,5.05
2018-12-27T12:05:37.557Z,5.00
2018-12-27T12:06:37.549Z,5.08
2018-12-27T12:07:37.501Z,5.12
2018-12-27T12:08:37.475Z,5.18
2018-12-27T12:09:37.450Z,5.23
2018-12-27T12:10:37.432Z,5.31
2018-12-27T12:11:37.396Z,5.36
2018-12-27T12:12:37.374Z,5.37
2018-12-27T12:13:38.689Z,5.33
2018-12-27T12:14:37.317Z,5.41
2018-12-27T12:15:37.292Z,5.40
2018-12-27T12:16:37.267Z,5.33
2018-12-27T12:17:37.242Z,5.44
2018-12-27T12:18:37.214Z,5.40
2018-12-27T12:19:37.188Z,5.41
2018-12-27T12:20:37.171Z,5.49
2018-12-27T12:21:37.152Z,5.52
2018-12-27T12:22:37.111Z,5.54
2018-12-27T12:23:37.090Z,5.55
2018-12-27T12:24:37.059Z,5.55
2018-12-27T12:25:37.034Z,5.64
2018-12-27T12:26:37.014Z,5.54
2018-12-27T12:27:36.982Z,5.55
2018-12-27T12:28:36.957Z,5.55
2018-12-27T12:29:36.931Z,5.58
2018-12-27T12:30:36.905Z,5.67
2018-12-27T12:31:36.890Z,5.59
2018-12-27T12:32:36.856Z,5.52
2018-12-27T12:33:36.828Z,5.69
2018-12-27T12:34:36.800Z,5.70
2018-12-27T12:35:36.811Z,5.72
2018-12-27T12:36:36.752Z,5.62
2018-12-27T12:37:36.724Z,5.65
2018-12-27T12:38:36.699Z,5.70
2018-12-27T12:39:36.681Z,5.62
2018-12-27T12:40:36.648Z,5.61
2018-12-27T12:41:36.623Z,5.73
2018-12-27T12:42:36.601Z,5.62
2018-12-27T12:43:36.582Z,5.62
2018-12-27T12:44:36.545Z,5.67
2018-12-27T12:45:36.520Z,5.65
2018-12-27T12:46:36.493Z,5.62
2018-12-27T12:47:36.470Z,5.65
2018-12-27T12:48:36.453Z,5.67
2018-12-27T12:49:36.418Z,5.72
2018-12-27T12:50:36.391Z,5.70
2018-12-27T12:51:36.366Z,5.74
2018-12-27T12:52:36.342Z,5.69
2018-12-27T12:53:36.316Z,5.72
2018-12-27T12:54:36.291Z,5.77
2018-12-27T12:55:36.263Z,5.74
2018-12-27T12:56:36.238Z,5.73
2018-12-27T12:57:36.213Z,5.72
2018-12-27T12:58:36.188Z,5.74
2018-12-27T12:59:36.245Z,5.65
2018-12-27T13:00:36.138Z,5.72
2018-12-27T13:01:36.115Z,5.73
2018-12-27T13:02:36.140Z,5.77
2018-12-27T13:03:36.059Z,5.81
2018-12-27T13:04:36.096Z,5.84
2018-12-27T13:05:36.013Z,5.84
2018-12-27T13:06:35.986Z,5.83
2018-12-27T13:07:35.958Z,5.92
2018-12-27T13:08:35.934Z,5.81
2018-12-27T13:09:35.907Z,5.91
2018-12-27T13:10:35.926Z,5.98
2018-12-27T13:11:35.857Z,6.01
2018-12-27T13:12:35.834Z,5.91
2018-12-27T13:13:35.806Z,5.97
2018-12-27T13:14:35.779Z,5.83
2018-12-27T13:15:35.759Z,5.87
2018-12-27T13:16:35.730Z,5.95
2018-12-27T13:17:35.706Z,5.91
2018-12-27T13:18:35.679Z,5.95
2018-12-27T13:19:35.655Z,5.91
2018-12-27T13:20:35.632Z,5.88
2018-12-27T13:21:35.610Z,5.90
2018-12-27T13:22:35.580Z,5.87
2018-12-27T13:23:35.555Z,5.91
2018-12-27T13:24:35.529Z,5.84
2018-12-27T13:25:35.506Z,5.79
2018-12-27T13:26:35.477Z,5.87
2018-12-27T13:27:35.457Z,5.84
2018-12-27T13:28:35.432Z,5.84
2018-12-27T13:29:35.404Z,5.87
2018-12-27T13:30:35.378Z,5.91
2018-12-27T13:31:35.352Z,5.87
2018-12-27T13:32:35.333Z,5.84
2018-12-27T13:33:35.306Z,5.81
2018-12-27T13:34:35.277Z,5.83
2018-12-27T13:35:35.254Z,5.79
2018-12-27T13:36:35.230Z,5.79
2018-12-27T13:37:35.203Z,5.73
2018-12-27T13:38:35.191Z,5.74
2018-12-27T13:39:35.149Z,5.76
2018-12-27T13:40:35.124Z,5.73
2018-12-27T13:41:35.178Z,5.70
2018-12-27T13:42:35.087Z,5.70
2018-12-27T13:43:35.050Z,5.70
2018-12-27T13:44:35.026Z,5.72
2018-12-27T13:45:35.006Z,5.73
2018-12-27T13:46:34.973Z,5.79
2018-12-27T13:47:34.950Z,5.69
2018-12-27T13:48:34.958Z,5.67
2018-12-27T13:49:34.901Z,5.76
2018-12-27T13:50:34.872Z,5.73
2018-12-27T13:51:34.853Z,5.74
2018-12-27T13:52:34.828Z,5.79
2018-12-27T13:53:34.797Z,5.79
2018-12-27T13:54:34.771Z,5.79
2018-12-27T13:55:34.746Z,5.81
2018-12-27T13:56:34.732Z,5.77
2018-12-27T13:57:34.695Z,5.88
2018-12-27T13:58:34.671Z,5.81
2018-12-27T13:59:34.646Z,5.90
2018-12-27T14:00:34.629Z,5.79
2018-12-27T14:01:34.618Z,5.81
2018-12-27T14:04:08.037Z,5.80